createdAt,value
2023-04-02T00:02:23.382Z,94560.56
2023-04-02T00:05:19.767Z,94565.84
2023-04-02T00:07:50.779Z,94564.84
2023-04-02T00:10:28.052Z,94569.66
2023-04-02T00:13:09.868Z,94573.44
2023-04-02T00:15:40.924Z,94578.28
2023-04-02T00:18:07.990Z,94576.66
2023-04-02T00:20:38.596Z,94574.81
2023-04-02T00:23:05.250Z,94567.50
2023-04-02T00:25:36.162Z,94577.81
2023-04-02T00:28:03.819Z,94575.41
2023-04-02T00:30:30.421Z,94570.78
2023-04-02T00:32:57.936Z,94581.34
2023-04-02T00:35:29.065Z,94582.63
2023-04-02T00:37:56.757Z,94584.91
2023-04-02T00:40:27.941Z,94586.16
2023-04-02T00:42:56.002Z,94580.88
2023-04-02T00:45:25.427Z,94579.28
2023-04-02T00:47:52.488Z,94587.44
2023-04-02T00:50:23.550Z,94589.03
2023-04-02T00:52:51.187Z,94584.31
2023-04-02T00:55:39.061Z,94596.34
2023-04-02T00:58:15.693Z,94593.72
2023-04-02T01:00:48.588Z,94601.63
2023-04-02T01:03:18.176Z,94604.28
2023-04-02T01:06:11.015Z,94605.09
2023-04-02T01:08:37.564Z,94609.56
2023-04-02T01:11:10.216Z,94619.91
2023-04-02T01:13:39.729Z,94619.09
2023-04-02T01:16:42.374Z,94621.50
2023-04-02T01:19:19.862Z,94620.69
2023-04-02T01:21:53.946Z,94615.41
2023-04-02T01:24:21.274Z,94617.03
2023-04-02T01:26:58.791Z,94617.81
2023-04-02T01:29:31.253Z,94621.72
2023-04-02T01:32:02.571Z,94622.19
2023-04-02T01:34:30.987Z,94621.72
2023-04-02T01:36:57.401Z,94619.69
2023-04-02T01:39:42.789Z,94625.97
2023-04-02T01:42:17.192Z,94632.06
2023-04-02T01:44:46.567Z,94639.97
2023-04-02T01:47:14.847Z,94631.81
2023-04-02T01:49:44.916Z,94635.28
2023-04-02T01:52:19.405Z,94639.75
2023-04-02T01:54:47.475Z,94636.66
2023-04-02T01:57:14.363Z,94638.84
2023-04-02T01:59:41.239Z,94642.50
2023-04-02T02:02:11.841Z,94633.78
2023-04-02T02:04:39.346Z,94644.13
2023-04-02T02:07:06.135Z,94640.69
2023-04-02T02:09:35.948Z,94643.91
2023-04-02T02:12:03.433Z,94644.13
2023-04-02T02:14:30.907Z,94650.44
2023-04-02T02:17:02.042Z,94654.34
2023-04-02T02:19:44.035Z,94638.28
2023-04-02T02:22:10.627Z,94655.72
2023-04-02T02:24:37.341Z,94642.50
2023-04-02T02:27:07.005Z,94647.78
2023-04-02T02:29:36.253Z,94652.84
2023-04-02T02:32:04.160Z,94652.84
2023-04-02T02:34:35.248Z,94657.22
2023-04-02T02:37:08.116Z,94663.38
2023-04-02T02:39:37.441Z,94656.03
2023-04-02T02:42:09.980Z,94659.25
2023-04-02T02:44:37.909Z,94662.50
2023-04-02T02:47:06.943Z,94661.81
2023-04-02T02:49:38.643Z,94667.31
2023-04-02T02:52:14.192Z,94663.63
2023-04-02T02:54:43.766Z,94668.69
2023-04-02T02:57:12.745Z,94680.03
2023-04-02T02:59:39.324Z,94674.78
2023-04-02T03:02:07.329Z,94675.81
2023-04-02T03:04:37.468Z,94681.88
2023-04-02T03:07:06.139Z,94681.09
2023-04-02T03:09:44.755Z,94685.31
2023-04-02T03:12:26.435Z,94683.50
2023-04-02T03:15:01.154Z,94685.09
2023-04-02T03:17:40.939Z,94693.81
2023-04-02T03:20:14.680Z,94692.78
2023-04-02T03:22:58.549Z,94694.63
2023-04-02T03:25:27.894Z,94697.06
2023-04-02T03:27:58.373Z,94697.06
2023-04-02T03:30:30.850Z,94701.75
2023-04-02T03:33:11.940Z,94704.56
2023-04-02T03:35:43.173Z,94716.16
2023-04-02T03:38:22.892Z,94703.09
2023-04-02T03:40:59.153Z,94714.00
2023-04-02T03:43:27.159Z,94710.00
2023-04-02T03:45:58.004Z,94719.38
2023-04-02T03:48:27.980Z,94720.25
2023-04-02T03:51:05.479Z,94715.34
2023-04-02T03:53:32.497Z,94719.97
2023-04-02T03:55:59.376Z,94722.97
2023-04-02T03:58:34.969Z,94713.78
2023-04-02T04:01:08.925Z,94730.41
2023-04-02T04:03:46.619Z,94735.47
2023-04-02T04:06:21.276Z,94732.25
2023-04-02T04:08:54.753Z,94738.66
2023-04-02T04:11:36.107Z,94740.25
2023-04-02T04:14:02.548Z,94748.53
2023-04-02T04:16:55.590Z,94744.31
2023-04-02T04:19:29.140Z,94748.53
2023-04-02T04:22:08.903Z,94751.75
2023-04-02T04:24:39.346Z,94751.31
2023-04-02T04:27:35.048Z,94759.44
2023-04-02T04:30:10.410Z,94756.00
2023-04-02T04:32:39.131Z,94757.03
2023-04-02T04:35:19.040Z,94763.34
2023-04-02T04:37:49.745Z,94768.38
2023-04-02T04:40:18.913Z,94768.75
2023-04-02T04:42:45.852Z,94770.38
2023-04-02T04:45:31.221Z,94765.88
2023-04-02T04:48:00.040Z,94767.06
2023-04-02T04:50:33.943Z,94770.28
2023-04-02T04:53:15.450Z,94775.56
2023-04-02T04:55:47.134Z,94777.25
2023-04-02T04:58:32.349Z,94770.81
2023-04-02T05:00:58.764Z,94776.66
2023-04-02T05:03:34.384Z,94775.78
2023-04-02T05:06:03.681Z,94779.56
2023-04-02T05:08:32.545Z,94773.06
2023-04-02T05:11:02.262Z,94778.91
2023-04-02T05:13:44.719Z,94778.09
2023-04-02T05:16:16.478Z,94790.25
2023-04-02T05:18:59.242Z,94783.97
2023-04-02T05:21:49.114Z,94791.75
2023-04-02T05:24:39.329Z,94784.28
2023-04-02T05:27:13.282Z,94793.34
2023-04-02T05:29:42.381Z,94794.75
2023-04-02T05:32:11.957Z,94789.84
2023-04-02T05:34:39.754Z,94797.19
2023-04-02T05:37:09.175Z,94794.75
2023-04-02T05:39:35.700Z,94797.84
2023-04-02T05:42:07.469Z,94793.00
2023-04-02T05:44:38.992Z,94798.50
2023-04-02T05:47:40.807Z,94799.09
2023-04-02T05:50:07.690Z,94792.91
2023-04-02T05:52:37.722Z,94801.41
2023-04-02T05:55:13.404Z,94799.34
2023-04-02T05:58:21.461Z,94805.91
2023-04-02T06:00:52.164Z,94805.53
2023-04-02T06:03:32.385Z,94805.31
2023-04-02T06:06:02.910Z,94808.75
2023-04-02T06:08:41.685Z,94815.66
2023-04-02T06:11:11.221Z,94811.56
2023-04-02T06:13:38.103Z,94823.28
2023-04-02T06:16:04.689Z,94820.47
2023-04-02T06:18:33.493Z,94820.28
2023-04-02T06:21:00.793Z,94822.47
2023-04-02T06:23:38.060Z,94824.91
2023-04-02T06:26:07.271Z,94823.13
2023-04-02T06:28:43.174Z,94826.22
2023-04-02T06:31:14.574Z,94832.09
2023-04-02T06:33:41.056Z,94837.94
2023-04-02T06:36:08.556Z,94840.59
2023-04-02T06:38:35.792Z,94844.41
2023-04-02T06:41:05.644Z,94843.41
2023-04-02T06:43:38.969Z,94850.66
2023-04-02T06:46:09.432Z,94854.09
2023-04-02T06:48:37.177Z,94856.16
2023-04-02T06:51:07.262Z,94859.81
2023-04-02T06:53:39.019Z,94851.88
2023-04-02T06:56:08.317Z,94856.16
2023-04-02T06:58:34.781Z,94856.16
2023-04-02T07:01:01.455Z,94858.34
2023-04-02T07:03:29.234Z,94866.63
2023-04-02T07:05:56.319Z,94871.22
2023-04-02T07:08:23.368Z,94876.75
2023-04-02T07:10:50.058Z,94874.31
2023-04-02T07:13:18.196Z,94889.72
2023-04-02T07:15:45.783Z,94881.78
2023-04-02T07:18:23.288Z,94889.72
2023-04-02T07:20:50.660Z,94886.19
2023-04-02T07:23:18.509Z,94890.75
2023-04-02T07:25:44.928Z,94896.19
2023-04-02T07:28:12.237Z,94897.88
2023-04-02T07:30:38.881Z,94894.00
2023-04-02T07:33:05.670Z,94906.28
2023-04-02T07:35:32.253Z,94908.63
2023-04-02T07:37:58.784Z,94904.88
2023-04-02T07:40:25.347Z,94910.97
2023-04-02T07:42:51.859Z,94903.59
2023-04-02T07:45:18.360Z,94907.78
2023-04-02T07:47:44.886Z,94919.75
2023-04-02T07:50:11.461Z,94920.19
2023-04-02T07:52:44.931Z,94915.22
2023-04-02T07:55:12.771Z,94922.41
2023-04-02T07:57:52.775Z,94922.41
2023-04-02T08:00:19.356Z,94921.28
2023-04-02T08:02:45.942Z,94925.50
2023-04-02T08:05:12.636Z,94923.78
2023-04-02T08:07:39.483Z,94926.06
2023-04-02T08:10:07.029Z,94930.38
2023-04-02T08:12:33.482Z,94925.09
2023-04-02T08:15:00.051Z,94927.88
2023-04-02T08:17:31.309Z,94929.38
2023-04-02T08:20:01.068Z,94932.09
2023-04-02T08:22:28.630Z,94925.78
2023-04-02T08:24:56.386Z,94936.00
2023-04-02T08:27:25.940Z,94934.25
2023-04-02T08:29:52.432Z,94935.94
2023-04-02T08:32:18.871Z,94937.53
2023-04-02T08:34:45.848Z,94941.81
2023-04-02T08:37:12.902Z,94936.22
2023-04-02T08:39:39.919Z,94942.22
2023-04-02T08:42:16.536Z,94947.06
2023-04-02T08:44:54.940Z,94942.94
2023-04-02T08:47:25.882Z,94952.13
2023-04-02T08:49:55.414Z,94946.97
2023-04-02T08:52:26.699Z,94952.50
2023-04-02T08:54:53.668Z,94959.78
2023-04-02T08:57:23.001Z,94956.59
2023-04-02T08:59:52.937Z,94960.84
2023-04-02T09:02:29.212Z,94961.78
2023-04-02T09:04:59.981Z,94969.72
2023-04-02T09:07:27.030Z,94972.38
2023-04-02T09:09:53.541Z,94972.81
2023-04-02T09:12:41.899Z,94974.00
2023-04-02T09:15:18.583Z,94973.03
2023-04-02T09:17:53.738Z,94975.38
2023-04-02T09:20:26.301Z,94977.13
2023-04-02T09:22:54.283Z,94978.03
2023-04-02T09:25:22.688Z,94979.44
2023-04-02T09:27:50.302Z,94985.31
2023-04-02T09:30:31.943Z,94980.94
2023-04-02T09:33:02.104Z,94976.69
2023-04-02T09:35:29.872Z,94979.69
2023-04-02T09:38:14.933Z,94982.69
2023-04-02T09:40:50.643Z,94979.81
2023-04-02T09:43:21.720Z,94990.28
2023-04-02T09:46:02.412Z,94992.59
2023-04-02T09:48:33.917Z,94991.13
2023-04-02T09:51:11.380Z,94995.50
2023-04-02T09:53:56.668Z,94999.31
2023-04-02T09:56:24.337Z,94999.66
2023-04-02T09:59:03.194Z,95005.44
2023-04-02T10:01:34.140Z,94996.91
2023-04-02T10:04:02.181Z,95004.66
2023-04-02T10:06:29.336Z,95003.84
2023-04-02T10:08:56.214Z,95013.16
2023-04-02T10:11:22.992Z,95005.78
2023-04-02T10:13:56.648Z,95004.97
2023-04-02T10:16:27.235Z,95018.44
2023-04-02T10:19:02.677Z,95017.06
2023-04-02T10:21:32.356Z,95019.59
2023-04-02T10:23:59.708Z,95019.53
2023-04-02T10:26:27.240Z,95015.41
2023-04-02T10:29:04.429Z,95014.81
2023-04-02T10:31:50.208Z,95011.59
2023-04-02T10:34:43.363Z,95019.91
2023-04-02T10:37:16.070Z,95009.25
2023-04-02T10:39:50.031Z,95009.00
2023-04-02T10:42:16.567Z,95016.53
2023-04-02T10:44:42.980Z,95010.13
2023-04-02T10:47:16.204Z,95012.31
2023-04-02T10:50:04.381Z,95009.78
2023-04-02T10:52:35.068Z,95009.09
2023-04-02T10:55:04.020Z,95013.59
2023-04-02T10:57:30.639Z,95018.91
2023-04-02T11:00:22.145Z,95013.63
2023-04-02T11:02:51.692Z,95012.25
2023-04-02T11:05:25.413Z,95018.13
2023-04-02T11:07:55.176Z,95007.44
2023-04-02T11:10:21.697Z,95016.19
2023-04-02T11:12:55.091Z,95027.56
2023-04-02T11:15:22.162Z,95038.69
2023-04-02T11:17:48.798Z,95039.13
2023-04-02T11:20:34.130Z,95041.28
2023-04-02T11:23:13.771Z,95038.63
2023-04-02T11:25:41.506Z,95045.28
2023-04-02T11:28:18.664Z,95056.06
2023-04-02T11:30:47.300Z,95049.34
2023-04-02T11:33:43.150Z,95054.88
2023-04-02T11:36:30.210Z,95052.16
2023-04-02T11:39:04.500Z,95041.47
2023-04-02T11:41:57.659Z,95042.19
2023-04-02T11:44:24.610Z,95052.44
2023-04-02T11:46:51.647Z,95048.22
2023-04-02T11:49:39.674Z,95065.47
2023-04-02T11:52:19.738Z,95060.53
2023-04-02T11:54:47.908Z,95064.13
2023-04-02T11:57:25.305Z,95065.34
2023-04-02T11:59:57.852Z,95068.59
2023-04-02T12:02:28.758Z,95071.81
2023-04-02T12:05:19.481Z,95073.53
2023-04-02T12:07:46.752Z,95080.06
2023-04-02T12:10:17.520Z,95080.06
2023-04-02T12:12:44.127Z,95088.66
2023-04-02T12:15:29.121Z,95088.69
2023-04-02T12:18:06.559Z,95087.97
2023-04-02T12:20:34.249Z,95090.78
2023-04-02T12:23:01.247Z,95094.75
2023-04-02T12:25:31.635Z,95101.13
2023-04-02T12:28:04.170Z,95106.28
2023-04-02T12:30:30.606Z,95110.16
2023-04-02T12:32:57.413Z,95113.47
2023-04-02T12:35:32.524Z,95113.09
2023-04-02T12:37:59.065Z,95113.53
2023-04-02T12:40:28.925Z,95126.59
2023-04-02T12:42:55.492Z,95132.84
2023-04-02T12:45:36.830Z,95138.16
2023-04-02T12:48:06.086Z,95136.13
2023-04-02T12:50:34.092Z,95151.25
2023-04-02T12:53:01.370Z,95154.41
2023-04-02T12:55:27.992Z,95156.44
2023-04-02T12:57:58.278Z,95154.84
2023-04-02T13:00:27.950Z,95166.38
2023-04-02T13:03:01.183Z,95175.00
2023-04-02T13:05:35.485Z,95172.63
2023-04-02T13:08:02.120Z,95184.78
2023-04-02T13:10:28.727Z,95194.16
2023-04-02T13:12:56.605Z,95185.28
2023-04-02T13:15:29.125Z,95198.09
2023-04-02T13:18:19.233Z,95207.06
2023-04-02T13:20:59.773Z,95200.41
2023-04-02T13:23:29.184Z,95204.47
2023-04-02T13:25:56.145Z,95212.56
2023-04-02T13:28:23.002Z,95209.47
2023-04-02T13:30:49.519Z,95225.66
2023-04-02T13:33:16.711Z,95223.28
2023-04-02T13:35:43.915Z,95222.72
2023-04-02T13:38:10.416Z,95237.31
2023-04-02T13:40:37.592Z,95234.09
2023-04-02T13:43:05.141Z,95257.91
2023-04-02T13:45:36.713Z,95258.69
2023-04-02T13:48:03.674Z,95257.47
2023-04-02T13:50:31.201Z,95262.38
2023-04-02T13:52:58.850Z,95262.75
2023-04-02T13:55:27.916Z,95263.78
2023-04-02T13:57:55.479Z,95251.63
2023-04-02T14:00:22.036Z,95259.72
2023-04-02T14:02:51.831Z,95256.50
2023-04-02T14:05:30.524Z,95264.81
2023-04-02T14:07:56.973Z,95271.06
2023-04-02T14:10:30.480Z,95276.34
2023-04-02T14:12:57.346Z,95274.72
2023-04-02T14:15:44.854Z,95280.41
2023-04-02T14:18:14.413Z,95286.44
2023-04-02T14:20:59.645Z,95280.78
2023-04-02T14:23:33.182Z,95280.97
2023-04-02T14:26:06.177Z,95285.19
2023-04-02T14:28:57.718Z,95294.72
2023-04-02T14:31:31.703Z,95300.97
2023-04-02T14:34:03.654Z,95307.41
2023-04-02T14:36:49.872Z,95305.16
2023-04-02T14:39:16.320Z,95314.56
2023-04-02T14:41:47.224Z,95314.97
2023-04-02T14:44:15.390Z,95314.13
2023-04-02T14:46:42.494Z,95314.88
2023-04-02T14:49:08.973Z,95318.13
2023-04-02T14:51:43.474Z,95325.00
2023-04-02T14:54:12.778Z,95333.50
2023-04-02T14:56:44.651Z,95325.81
2023-04-02T14:59:11.553Z,95338.94
2023-04-02T15:01:40.909Z,95334.47
2023-04-02T15:04:12.047Z,95336.72
2023-04-02T15:06:41.765Z,95338.56
2023-04-02T15:09:16.299Z,95340.22
2023-04-02T15:11:46.541Z,95340.78
2023-04-02T15:14:33.200Z,95344.81
2023-04-02T15:16:59.756Z,95340.34
2023-04-02T15:19:26.260Z,95349.63
2023-04-02T15:22:02.159Z,95343.31
2023-04-02T15:24:32.526Z,95354.00
2023-04-02T15:27:31.573Z,95358.63
2023-04-02T15:30:00.831Z,95361.22
2023-04-02T15:32:30.519Z,95365.28
2023-04-02T15:34:59.948Z,95367.72
2023-04-02T15:37:44.090Z,95379.59
2023-04-02T15:40:29.253Z,95382.03
2023-04-02T15:43:14.568Z,95385.13
2023-04-02T15:45:41.131Z,95381.72
2023-04-02T15:48:16.450Z,95390.75
2023-04-02T15:50:58.800Z,95390.50
2023-04-02T15:53:31.204Z,95394.31
2023-04-02T15:56:08.671Z,95401.66
2023-04-02T15:58:56.832Z,95404.06
2023-04-02T16:01:23.357Z,95401.88
2023-04-02T16:04:01.989Z,95403.44
2023-04-02T16:06:40.450Z,95409.13
2023-04-02T16:09:23.289Z,95413.63
2023-04-02T16:11:56.661Z,95422.44
2023-04-02T16:14:30.342Z,95422.00
2023-04-02T16:17:10.909Z,95420.81
2023-04-02T16:19:56.941Z,95421.06
2023-04-02T16:22:26.710Z,95437.25
2023-04-02T16:25:06.931Z,95429.78
2023-04-02T16:27:36.720Z,95439.69
2023-04-02T16:30:06.541Z,95433.38
2023-04-02T16:32:42.106Z,95449.09
2023-04-02T16:35:41.691Z,95445.44
2023-04-02T16:38:27.576Z,95446.38
2023-04-02T16:41:07.763Z,95450.00
2023-04-02T16:43:38.055Z,95452.84
2023-04-02T16:46:36.343Z,95452.94
2023-04-02T16:49:25.357Z,95458.03
2023-04-02T16:52:01.133Z,95454.34
2023-04-02T16:54:36.079Z,95460.31
2023-04-02T16:57:17.355Z,95462.75
2023-04-02T16:59:50.808Z,95463.63
2023-04-02T17:02:36.230Z,95472.22
2023-04-02T17:05:14.855Z,95470.59
2023-04-02T17:07:46.223Z,95472.78
2023-04-02T17:10:12.763Z,95475.84
2023-04-02T17:12:41.954Z,95480.22
2023-04-02T17:15:27.776Z,95476.13
2023-04-02T17:17:57.349Z,95489.22
2023-04-02T17:20:25.970Z,95496.34
2023-04-02T17:22:53.364Z,95488.56
2023-04-02T17:25:25.420Z,95497.47
2023-04-02T17:27:54.221Z,95500.28
2023-04-02T17:30:29.696Z,95505.16
2023-04-02T17:32:56.199Z,95507.19
2023-04-02T17:35:26.838Z,95510.75
2023-04-02T17:38:04.610Z,95508.59
2023-04-02T17:40:48.617Z,95508.47
2023-04-02T17:43:15.537Z,95510.13
2023-04-02T17:45:47.185Z,95518.16
2023-04-02T17:48:13.851Z,95523.00
2023-04-02T17:50:43.725Z,95527.00
2023-04-02T17:53:19.065Z,95538.66
2023-04-02T17:56:04.267Z,95534.25
2023-04-02T17:58:48.177Z,95534.88
2023-04-02T18:01:17.400Z,95533.50
2023-04-02T18:04:02.089Z,95536.41
2023-04-02T18:06:39.574Z,95540.25
2023-04-02T18:09:11.778Z,95542.88
2023-04-02T18:11:54.927Z,95553.13
2023-04-02T18:14:47.837Z,95548.63
2023-04-02T18:17:22.076Z,95553.13
2023-04-02T18:19:51.800Z,95551.25
2023-04-02T18:22:23.134Z,95550.50
2023-04-02T18:25:08.489Z,95554.22
2023-04-02T18:27:37.654Z,95556.47
2023-04-02T18:30:23.021Z,95561.97
2023-04-02T18:32:49.555Z,95569.31
2023-04-02T18:35:26.938Z,95568.88
2023-04-02T18:37:56.224Z,95576.06
2023-04-02T18:40:22.841Z,95573.53
2023-04-02T18:42:52.495Z,95573.00
2023-04-02T18:45:33.572Z,95587.84
2023-04-02T18:48:11.578Z,95584.69
2023-04-02T18:50:45.960Z,95583.50
2023-04-02T18:53:13.970Z,95588.75
2023-04-02T18:55:46.607Z,95589.66
2023-04-02T18:58:15.950Z,95588.28
2023-04-02T19:00:44.479Z,95586.31
2023-04-02T19:03:18.639Z,95589.25
2023-04-02T19:05:53.975Z,95596.22
2023-04-02T19:08:28.114Z,95594.03
2023-04-02T19:10:58.843Z,95600.66
2023-04-02T19:13:25.632Z,95591.88
2023-04-02T19:16:06.530Z,95594.78
2023-04-02T19:18:51.847Z,95601.91
2023-04-02T19:21:18.289Z,95605.19
2023-04-02T19:24:01.593Z,95596.22
2023-04-02T19:26:36.501Z,95596.41
2023-04-02T19:29:05.611Z,95600.00
2023-04-02T19:31:32.129Z,95596.69
2023-04-02T19:34:17.202Z,95596.13
2023-04-02T19:36:47.268Z,95598.19
2023-04-02T19:39:22.613Z,95603.13
2023-04-02T19:41:53.217Z,95602.66
2023-04-02T19:44:20.318Z,95602.66
2023-04-02T19:46:47.155Z,95602.81
2023-04-02T19:49:19.949Z,95609.78
2023-04-02T19:51:46.417Z,95605.91
2023-04-02T19:54:12.914Z,95614.13
2023-04-02T19:56:39.733Z,95605.97
2023-04-02T19:59:17.112Z,95616.13
2023-04-02T20:01:44.397Z,95615.28
2023-04-02T20:04:11.000Z,95616.13
2023-04-02T20:06:37.798Z,95616.47
2023-04-02T20:09:04.488Z,95618.38
2023-04-02T20:11:31.066Z,95629.88
2023-04-02T20:13:57.518Z,95636.28
2023-04-02T20:16:24.106Z,95645.34
2023-04-02T20:18:50.960Z,95636.91
2023-04-02T20:21:17.482Z,95638.59
2023-04-02T20:23:43.945Z,95641.59
2023-04-02T20:26:10.588Z,95643.94
2023-04-02T20:28:37.112Z,95648.44
2023-04-02T20:31:11.137Z,95652.88
2023-04-02T20:33:38.433Z,95652.41
2023-04-02T20:36:06.795Z,95650.34
2023-04-02T20:38:33.370Z,95644.53
2023-04-02T20:41:00.827Z,95646.84
2023-04-02T20:43:28.426Z,95649.88
2023-04-02T20:45:59.621Z,95646.09
2023-04-02T20:48:30.887Z,95655.66
2023-04-02T20:50:57.368Z,95646.00
2023-04-02T20:53:23.821Z,95652.81
2023-04-02T20:55:50.337Z,95651.38
2023-04-02T20:58:17.982Z,95655.56
2023-04-02T21:00:44.859Z,95659.75
2023-04-02T21:03:11.795Z,95664.81
2023-04-02T21:05:45.008Z,95664.09
2023-04-02T21:08:12.283Z,95669.16
2023-04-02T21:10:39.313Z,95658.16
2023-04-02T21:13:05.942Z,95661.19
2023-04-02T21:15:32.622Z,95667.00
2023-04-02T21:17:59.165Z,95666.59
2023-04-02T21:20:26.664Z,95663.44
2023-04-02T21:22:53.330Z,95661.34
2023-04-02T21:25:20.233Z,95661.38
2023-04-02T21:27:46.686Z,95668.94
2023-04-02T21:30:13.223Z,95662.13
2023-04-02T21:32:39.692Z,95667.84
2023-04-02T21:35:07.606Z,95664.28
2023-04-02T21:37:34.084Z,95667.09
2023-04-02T21:40:00.600Z,95657.44
2023-04-02T21:42:27.900Z,95668.00
2023-04-02T21:44:55.966Z,95663.72
2023-04-02T21:47:23.578Z,95667.69
2023-04-02T21:49:50.110Z,95676.06
2023-04-02T21:52:16.542Z,95669.38
2023-04-02T21:54:42.971Z,95678.06
2023-04-02T21:57:09.753Z,95669.22
2023-04-02T21:59:36.193Z,95670.34
2023-04-02T22:02:02.657Z,95675.59
2023-04-02T22:04:30.719Z,95669.84
2023-04-02T22:06:57.352Z,95676.53
2023-04-02T22:09:25.079Z,95665.19
2023-04-02T22:11:54.304Z,95672.94
2023-04-02T22:14:21.314Z,95681.78
2023-04-02T22:16:47.871Z,95678.75
2023-04-02T22:19:15.989Z,95692.25
2023-04-02T22:21:42.922Z,95687.69
2023-04-02T22:24:12.469Z,95690.13
2023-04-02T22:26:40.428Z,95690.50
2023-04-02T22:29:07.748Z,95686.88
2023-04-02T22:31:35.139Z,95686.66
2023-04-02T22:34:02.707Z,95691.13
2023-04-02T22:36:29.437Z,95693.75
2023-04-02T22:38:56.662Z,95695.06
2023-04-02T22:41:25.995Z,95697.03
2023-04-02T22:43:52.604Z,95702.75
2023-04-02T22:46:19.649Z,95704.84
2023-04-02T22:48:46.868Z,95716.34
2023-04-02T22:51:14.418Z,95710.66
2023-04-02T22:53:41.673Z,95714.78
2023-04-02T22:56:14.110Z,95712.03
2023-04-02T22:58:40.695Z,95711.72
2023-04-02T23:01:08.473Z,95711.25
2023-04-02T23:03:35.548Z,95721.06
2023-04-02T23:06:04.283Z,95706.66
2023-04-02T23:08:30.954Z,95711.56
2023-04-02T23:11:01.735Z,95714.53
2023-04-02T23:13:28.210Z,95707.16
2023-04-02T23:15:54.763Z,95709.25
2023-04-02T23:18:21.450Z,95690.53
2023-04-02T23:20:47.906Z,95699.81
2023-04-02T23:23:14.354Z,95692.47
2023-04-02T23:25:41.313Z,95695.00
2023-04-02T23:28:07.761Z,95698.13
2023-04-02T23:30:34.517Z,95702.09
2023-04-02T23:33:02.711Z,95697.81
2023-04-02T23:35:30.346Z,95698.75
2023-04-02T23:37:57.033Z,95703.13
2023-04-02T23:40:23.494Z,95697.34
2023-04-02T23:42:49.925Z,95703.53
2023-04-02T23:45:17.575Z,95700.63
2023-04-02T23:47:44.367Z,95703.41
2023-04-02T23:50:10.954Z,95702.94
2023-04-02T23:52:37.668Z,95706.09
2023-04-02T23:55:04.206Z,95704.13
2023-04-02T23:57:30.943Z,95699.06
2023-04-02T23:59:57.440Z,95702.75
